sensor_id;sensor_type;location;lat;lon;timestamp;P1;durP1;ratioP1;P2;durP2;ratioP2
55288;SDS011;41154;45.394;5.734;2023-02-22T00:01:09;22.50;;;10.95;;
55288;SDS011;41154;45.394;5.734;2023-02-22T00:03:49;30.88;;;13.80;;
55288;SDS011;41154;45.394;5.734;2023-02-22T00:06:18;22.77;;;11.10;;
55288;SDS011;41154;45.394;5.734;2023-02-22T00:08:47;25.02;;;10.27;;
55288;SDS011;41154;45.394;5.734;2023-02-22T00:11:14;19.73;;;9.43;;
55288;SDS011;41154;45.394;5.734;2023-02-22T00:13:40;22.65;;;10.27;;
55288;SDS011;41154;45.394;5.734;2023-02-22T00:16:16;17.80;;;8.88;;
55288;SDS011;41154;45.394;5.734;2023-02-22T00:18:45;20.40;;;9.07;;
55288;SDS011;41154;45.394;5.734;2023-02-22T00:21:12;13.73;;;7.50;;
55288;SDS011;41154;45.394;5.734;2023-02-22T00:23:40;14.27;;;6.00;;
55288;SDS011;41154;45.394;5.734;2023-02-22T00:26:11;10.85;;;5.65;;
55288;SDS011;41154;45.394;5.734;2023-02-22T00:28:48;10.70;;;5.88;;
55288;SDS011;41154;45.394;5.734;2023-02-22T00:31:16;14.90;;;6.57;;
55288;SDS011;41154;45.394;5.734;2023-02-22T00:33:42;15.23;;;7.18;;
55288;SDS011;41154;45.394;5.734;2023-02-22T00:36:10;15.70;;;7.10;;
55288;SDS011;41154;45.394;5.734;2023-02-22T00:38:36;19.30;;;7.80;;
55288;SDS011;41154;45.394;5.734;2023-02-22T00:41:04;15.48;;;8.23;;
55288;SDS011;41154;45.394;5.734;2023-02-22T00:43:30;13.25;;;7.25;;
55288;SDS011;41154;45.394;5.734;2023-02-22T00:45:55;15.02;;;7.20;;
55288;SDS011;41154;45.394;5.734;2023-02-22T00:48:23;11.68;;;7.28;;
55288;SDS011;41154;45.394;5.734;2023-02-22T00:50:50;13.73;;;6.63;;
55288;SDS011;41154;45.394;5.734;2023-02-22T00:53:23;11.15;;;6.55;;
55288;SDS011;41154;45.394;5.734;2023-02-22T00:55:53;12.60;;;6.82;;
55288;SDS011;41154;45.394;5.734;2023-02-22T00:58:19;9.57;;;6.00;;
55288;SDS011;41154;45.394;5.734;2023-02-22T01:00:45;17.60;;;8.65;;
55288;SDS011;41154;45.394;5.734;2023-02-22T01:03:13;18.05;;;8.38;;
55288;SDS011;41154;45.394;5.734;2023-02-22T01:05:41;15.45;;;8.27;;
55288;SDS011;41154;45.394;5.734;2023-02-22T01:08:10;14.38;;;7.20;;
55288;SDS011;41154;45.394;5.734;2023-02-22T01:10:38;15.93;;;7.68;;
55288;SDS011;41154;45.394;5.734;2023-02-22T01:13:04;14.88;;;6.65;;
55288;SDS011;41154;45.394;5.734;2023-02-22T01:15:33;13.40;;;7.22;;
55288;SDS011;41154;45.394;5.734;2023-02-22T01:18:00;16.33;;;7.07;;
55288;SDS011;41154;45.394;5.734;2023-02-22T01:20:26;11.60;;;6.90;;
55288;SDS011;41154;45.394;5.734;2023-02-22T01:22:54;16.67;;;7.55;;
55288;SDS011;41154;45.394;5.734;2023-02-22T01:25:24;15.82;;;7.20;;
55288;SDS011;41154;45.394;5.734;2023-02-22T01:27:53;16.75;;;7.28;;
55288;SDS011;41154;45.394;5.734;2023-02-22T01:30:24;15.30;;;6.90;;
55288;SDS011;41154;45.394;5.734;2023-02-22T01:32:52;14.55;;;6.00;;
55288;SDS011;41154;45.394;5.734;2023-02-22T01:35:19;16.15;;;7.32;;
55288;SDS011;41154;45.394;5.734;2023-02-22T01:37:46;11.27;;;6.18;;
55288;SDS011;41154;45.394;5.734;2023-02-22T01:40:19;16.42;;;8.68;;
55288;SDS011;41154;45.394;5.734;2023-02-22T01:47:58;17.05;;;8.63;;
55288;SDS011;41154;45.394;5.734;2023-02-22T01:50:32;16.73;;;8.40;;
55288;SDS011;41154;45.394;5.734;2023-02-22T01:53:02;17.27;;;8.93;;
55288;SDS011;41154;45.394;5.734;2023-02-22T01:55:30;21.00;;;8.80;;
55288;SDS011;41154;45.394;5.734;2023-02-22T01:57:57;20.70;;;8.93;;
55288;SDS011;41154;45.394;5.734;2023-02-22T02:00:25;17.50;;;10.00;;
55288;SDS011;41154;45.394;5.734;2023-02-22T02:02:55;20.15;;;9.57;;
55288;SDS011;41154;45.394;5.734;2023-02-22T02:05:26;15.07;;;7.68;;
55288;SDS011;41154;45.394;5.734;2023-02-22T02:07:56;17.95;;;8.90;;
55288;SDS011;41154;45.394;5.734;2023-02-22T02:10:22;15.95;;;8.60;;
55288;SDS011;41154;45.394;5.734;2023-02-22T02:12:52;18.10;;;8.70;;
55288;SDS011;41154;45.394;5.734;2023-02-22T02:15:27;18.70;;;9.38;;
55288;SDS011;41154;45.394;5.734;2023-02-22T02:18:02;19.25;;;9.32;;
55288;SDS011;41154;45.394;5.734;2023-02-22T02:34:38;18.65;;;9.20;;
55288;SDS011;41154;45.394;5.734;2023-02-22T02:37:18;28.02;;;10.65;;
55288;SDS011;41154;45.394;5.734;2023-02-22T02:42:24;16.38;;;7.57;;
55288;SDS011;41154;45.394;5.734;2023-02-22T02:45:03;18.33;;;8.57;;
55288;SDS011;41154;45.394;5.734;2023-02-22T02:47:35;16.58;;;8.43;;
55288;SDS011;41154;45.394;5.734;2023-02-22T02:50:12;15.18;;;8.07;;
55288;SDS011;41154;45.394;5.734;2023-02-22T02:52:44;19.85;;;9.27;;
55288;SDS011;41154;45.394;5.734;2023-02-22T02:55:12;18.30;;;9.05;;
55288;SDS011;41154;45.394;5.734;2023-02-22T02:57:39;20.17;;;8.15;;
55288;SDS011;41154;45.394;5.734;2023-02-22T03:00:06;15.80;;;9.43;;
55288;SDS011;41154;45.394;5.734;2023-02-22T03:08:58;16.63;;;7.53;;
55288;SDS011;41154;45.394;5.734;2023-02-22T03:11:47;15.35;;;6.88;;
55288;SDS011;41154;45.394;5.734;2023-02-22T03:14:28;17.55;;;7.25;;
55288;SDS011;41154;45.394;5.734;2023-02-22T03:19:44;20.88;;;9.07;;
55288;SDS011;41154;45.394;5.734;2023-02-22T03:22:17;20.33;;;10.90;;
55288;SDS011;41154;45.394;5.734;2023-02-22T03:24:58;28.77;;;10.27;;
55288;SDS011;41154;45.394;5.734;2023-02-22T03:27:36;17.92;;;8.63;;
55288;SDS011;41154;45.394;5.734;2023-02-22T03:32:45;26.30;;;9.37;;
55288;SDS011;41154;45.394;5.734;2023-02-22T03:35:15;20.60;;;8.63;;
55288;SDS011;41154;45.394;5.734;2023-02-22T03:37:47;12.50;;;6.65;;
55288;SDS011;41154;45.394;5.734;2023-02-22T03:40:21;20.73;;;10.90;;
55288;SDS011;41154;45.394;5.734;2023-02-22T03:43:01;18.90;;;8.18;;
55288;SDS011;41154;45.394;5.734;2023-02-22T03:45:33;20.23;;;10.43;;
55288;SDS011;41154;45.394;5.734;2023-02-22T03:48:10;17.73;;;8.73;;
55288;SDS011;41154;45.394;5.734;2023-02-22T03:50:47;18.10;;;10.30;;
55288;SDS011;41154;45.394;5.734;2023-02-22T03:53:16;18.58;;;8.80;;
55288;SDS011;41154;45.394;5.734;2023-02-22T03:55:46;20.25;;;8.43;;
55288;SDS011;41154;45.394;5.734;2023-02-22T03:58:16;14.73;;;7.88;;
55288;SDS011;41154;45.394;5.734;2023-02-22T04:03:10;20.92;;;9.45;;
55288;SDS011;41154;45.394;5.734;2023-02-22T04:05:37;22.85;;;9.15;;
55288;SDS011;41154;45.394;5.734;2023-02-22T04:08:03;21.27;;;10.32;;
55288;SDS011;41154;45.394;5.734;2023-02-22T04:10:31;19.00;;;8.55;;
55288;SDS011;41154;45.394;5.734;2023-02-22T04:12:58;17.08;;;10.23;;
55288;SDS011;41154;45.394;5.734;2023-02-22T04:15:24;21.70;;;10.25;;
55288;SDS011;41154;45.394;5.734;2023-02-22T04:17:54;18.02;;;9.35;;
55288;SDS011;41154;45.394;5.734;2023-02-22T04:20:21;19.77;;;9.00;;
55288;SDS011;41154;45.394;5.734;2023-02-22T04:23:05;22.23;;;10.45;;
55288;SDS011;41154;45.394;5.734;2023-02-22T04:25:31;20.70;;;10.02;;
55288;SDS011;41154;45.394;5.734;2023-02-22T04:28:09;21.15;;;9.45;;
55288;SDS011;41154;45.394;5.734;2023-02-22T04:30:42;17.73;;;7.88;;
55288;SDS011;41154;45.394;5.734;2023-02-22T04:33:12;21.25;;;9.65;;
55288;SDS011;41154;45.394;5.734;2023-02-22T04:35:38;17.75;;;8.93;;
55288;SDS011;41154;45.394;5.734;2023-02-22T04:38:05;20.70;;;9.02;;
55288;SDS011;41154;45.394;5.734;2023-02-22T04:40:31;18.10;;;8.75;;
55288;SDS011;41154;45.394;5.734;2023-02-22T04:42:57;22.23;;;10.15;;
55288;SDS011;41154;45.394;5.734;2023-02-22T04:45:24;23.25;;;10.07;;
55288;SDS011;41154;45.394;5.734;2023-02-22T04:47:50;19.63;;;9.70;;
55288;SDS011;41154;45.394;5.734;2023-02-22T04:50:16;21.40;;;9.20;;
55288;SDS011;41154;45.394;5.734;2023-02-22T04:52:44;20.02;;;8.80;;
55288;SDS011;41154;45.394;5.734;2023-02-22T04:55:13;20.60;;;9.57;;
55288;SDS011;41154;45.394;5.734;2023-02-22T04:57:41;21.98;;;10.95;;
55288;SDS011;41154;45.394;5.734;2023-02-22T05:00:07;21.70;;;9.48;;
55288;SDS011;41154;45.394;5.734;2023-02-22T05:02:39;24.38;;;9.52;;
55288;SDS011;41154;45.394;5.734;2023-02-22T05:05:05;20.70;;;8.68;;
55288;SDS011;41154;45.394;5.734;2023-02-22T05:07:31;25.88;;;10.68;;
55288;SDS011;41154;45.394;5.734;2023-02-22T05:09:56;22.58;;;10.93;;
55288;SDS011;41154;45.394;5.734;2023-02-22T05:12:22;20.92;;;11.32;;
55288;SDS011;41154;45.394;5.734;2023-02-22T05:14:48;25.02;;;10.30;;
55288;SDS011;41154;45.394;5.734;2023-02-22T05:17:14;27.48;;;11.07;;
55288;SDS011;41154;45.394;5.734;2023-02-22T05:19:39;23.13;;;10.02;;
55288;SDS011;41154;45.394;5.734;2023-02-22T05:22:07;22.30;;;10.25;;
55288;SDS011;41154;45.394;5.734;2023-02-22T05:24:33;23.63;;;9.77;;
55288;SDS011;41154;45.394;5.734;2023-02-22T05:26:59;21.45;;;11.15;;
55288;SDS011;41154;45.394;5.734;2023-02-22T05:29:25;22.40;;;10.45;;
55288;SDS011;41154;45.394;5.734;2023-02-22T05:31:51;19.77;;;9.55;;
55288;SDS011;41154;45.394;5.734;2023-02-22T05:34:17;21.30;;;10.05;;
55288;SDS011;41154;45.394;5.734;2023-02-22T05:36:44;20.15;;;10.70;;
55288;SDS011;41154;45.394;5.734;2023-02-22T05:39:13;18.98;;;10.07;;
55288;SDS011;41154;45.394;5.734;2023-02-22T05:41:39;23.35;;;10.13;;
55288;SDS011;41154;45.394;5.734;2023-02-22T05:44:05;22.52;;;9.82;;
55288;SDS011;41154;45.394;5.734;2023-02-22T05:46:35;20.70;;;10.02;;
55288;SDS011;41154;45.394;5.734;2023-02-22T05:49:01;16.00;;;7.57;;
55288;SDS011;41154;45.394;5.734;2023-02-22T05:51:27;22.45;;;10.18;;
55288;SDS011;41154;45.394;5.734;2023-02-22T05:53:53;26.05;;;12.30;;
55288;SDS011;41154;45.394;5.734;2023-02-22T05:56:19;23.38;;;11.13;;
55288;SDS011;41154;45.394;5.734;2023-02-22T05:58:49;22.77;;;11.80;;
55288;SDS011;41154;45.394;5.734;2023-02-22T06:01:15;20.92;;;10.35;;
55288;SDS011;41154;45.394;5.734;2023-02-22T06:03:41;24.80;;;11.63;;
55288;SDS011;41154;45.394;5.734;2023-02-22T06:06:07;23.60;;;10.55;;
55288;SDS011;41154;45.394;5.734;2023-02-22T06:08:33;20.10;;;10.90;;
55288;SDS011;41154;45.394;5.734;2023-02-22T06:10:59;23.98;;;10.27;;
55288;SDS011;41154;45.394;5.734;2023-02-22T06:13:25;20.80;;;10.05;;
55288;SDS011;41154;45.394;5.734;2023-02-22T06:15:52;24.20;;;11.73;;
55288;SDS011;41154;45.394;5.734;2023-02-22T06:18:18;20.58;;;10.43;;
55288;SDS011;41154;45.394;5.734;2023-02-22T06:20:43;26.55;;;11.60;;
55288;SDS011;41154;45.394;5.734;2023-02-22T06:23:09;25.08;;;10.95;;
55288;SDS011;41154;45.394;5.734;2023-02-22T06:25:35;20.42;;;10.82;;
55288;SDS011;41154;45.394;5.734;2023-02-22T06:28:01;18.92;;;10.40;;
55288;SDS011;41154;45.394;5.734;2023-02-22T06:30:27;23.35;;;10.65;;
55288;SDS011;41154;45.394;5.734;2023-02-22T06:32:53;22.00;;;10.23;;
55288;SDS011;41154;45.394;5.734;2023-02-22T06:35:19;22.85;;;10.43;;
55288;SDS011;41154;45.394;5.734;2023-02-22T06:37:47;27.35;;;12.38;;
55288;SDS011;41154;45.394;5.734;2023-02-22T06:40:13;25.23;;;11.13;;
55288;SDS011;41154;45.394;5.734;2023-02-22T06:42:45;22.83;;;10.82;;
55288;SDS011;41154;45.394;5.734;2023-02-22T06:45:12;23.20;;;10.55;;
55288;SDS011;41154;45.394;5.734;2023-02-22T06:47:38;25.50;;;10.05;;
55288;SDS011;41154;45.394;5.734;2023-02-22T06:50:05;22.50;;;11.38;;
55288;SDS011;41154;45.394;5.734;2023-02-22T06:52:41;18.27;;;9.93;;
55288;SDS011;41154;45.394;5.734;2023-02-22T06:55:07;20.77;;;10.05;;
55288;SDS011;41154;45.394;5.734;2023-02-22T06:57:33;20.00;;;9.93;;
55288;SDS011;41154;45.394;5.734;2023-02-22T06:59:58;31.50;;;13.27;;
55288;SDS011;41154;45.394;5.734;2023-02-22T07:02:24;29.75;;;12.10;;
55288;SDS011;41154;45.394;5.734;2023-02-22T07:04:50;32.45;;;15.00;;
55288;SDS011;41154;45.394;5.734;2023-02-22T07:07:16;23.50;;;12.07;;
55288;SDS011;41154;45.394;5.734;2023-02-22T07:09:44;21.40;;;10.10;;
55288;SDS011;41154;45.394;5.734;2023-02-22T07:12:11;19.65;;;10.70;;
55288;SDS011;41154;45.394;5.734;2023-02-22T07:14:36;22.77;;;9.75;;
55288;SDS011;41154;45.394;5.734;2023-02-22T07:17:02;21.15;;;10.38;;
55288;SDS011;41154;45.394;5.734;2023-02-22T07:19:28;29.50;;;13.38;;
55288;SDS011;41154;45.394;5.734;2023-02-22T07:21:54;24.38;;;11.43;;
55288;SDS011;41154;45.394;5.734;2023-02-22T07:24:23;24.90;;;12.82;;
55288;SDS011;41154;45.394;5.734;2023-02-22T07:26:54;32.85;;;12.35;;
55288;SDS011;41154;45.394;5.734;2023-02-22T07:29:21;25.75;;;11.73;;
55288;SDS011;41154;45.394;5.734;2023-02-22T07:31:46;28.73;;;12.57;;
55288;SDS011;41154;45.394;5.734;2023-02-22T07:34:13;37.72;;;16.65;;
55288;SDS011;41154;45.394;5.734;2023-02-22T07:36:38;30.63;;;13.98;;
55288;SDS011;41154;45.394;5.734;2023-02-22T07:39:04;24.13;;;12.15;;
55288;SDS011;41154;45.394;5.734;2023-02-22T07:41:33;27.83;;;12.02;;
55288;SDS011;41154;45.394;5.734;2023-02-22T07:43:59;21.83;;;10.77;;
55288;SDS011;41154;45.394;5.734;2023-02-22T07:46:24;25.98;;;11.32;;
55288;SDS011;41154;45.394;5.734;2023-02-22T07:48:50;20.98;;;11.48;;
55288;SDS011;41154;45.394;5.734;2023-02-22T07:51:16;22.58;;;11.23;;
55288;SDS011;41154;45.394;5.734;2023-02-22T07:53:44;35.95;;;13.23;;
55288;SDS011;41154;45.394;5.734;2023-02-22T07:56:10;26.55;;;12.07;;
55288;SDS011;41154;45.394;5.734;2023-02-22T07:58:36;23.80;;;10.80;;
55288;SDS011;41154;45.394;5.734;2023-02-22T08:01:02;23.05;;;11.13;;
55288;SDS011;41154;45.394;5.734;2023-02-22T08:03:32;25.50;;;12.32;;
55288;SDS011;41154;45.394;5.734;2023-02-22T08:06:00;20.25;;;10.13;;
55288;SDS011;41154;45.394;5.734;2023-02-22T08:08:27;26.35;;;10.50;;
55288;SDS011;41154;45.394;5.734;2023-02-22T08:10:55;15.18;;;7.78;;
55288;SDS011;41154;45.394;5.734;2023-02-22T08:13:22;20.75;;;9.20;;
55288;SDS011;41154;45.394;5.734;2023-02-22T08:15:49;19.75;;;9.68;;
55288;SDS011;41154;45.394;5.734;2023-02-22T08:18:17;30.27;;;14.23;;
55288;SDS011;41154;45.394;5.734;2023-02-22T08:20:45;33.10;;;13.90;;
55288;SDS011;41154;45.394;5.734;2023-02-22T08:23:13;28.77;;;13.82;;
55288;SDS011;41154;45.394;5.734;2023-02-22T08:25:40;26.98;;;13.35;;
55288;SDS011;41154;45.394;5.734;2023-02-22T08:28:10;25.38;;;13.05;;
55288;SDS011;41154;45.394;5.734;2023-02-22T08:30:37;26.85;;;13.32;;
55288;SDS011;41154;45.394;5.734;2023-02-22T08:33:04;27.98;;;13.32;;
55288;SDS011;41154;45.394;5.734;2023-02-22T08:35:31;27.80;;;13.85;;
55288;SDS011;41154;45.394;5.734;2023-02-22T08:37:59;29.48;;;12.88;;
55288;SDS011;41154;45.394;5.734;2023-02-22T08:40:28;24.90;;;11.73;;
55288;SDS011;41154;45.394;5.734;2023-02-22T08:42:56;22.83;;;11.95;;
55288;SDS011;41154;45.394;5.734;2023-02-22T08:45:23;22.25;;;11.07;;
55288;SDS011;41154;45.394;5.734;2023-02-22T08:47:49;24.75;;;10.07;;
55288;SDS011;41154;45.394;5.734;2023-02-22T08:50:27;20.90;;;11.00;;
55288;SDS011;41154;45.394;5.734;2023-02-22T08:52:55;21.05;;;10.90;;
55288;SDS011;41154;45.394;5.734;2023-02-22T08:55:24;17.60;;;10.10;;
55288;SDS011;41154;45.394;5.734;2023-02-22T08:57:52;19.25;;;9.48;;
55288;SDS011;41154;45.394;5.734;2023-02-22T09:00:18;16.33;;;8.50;;
55288;SDS011;41154;45.394;5.734;2023-02-22T09:02:45;19.23;;;9.07;;
55288;SDS011;41154;45.394;5.734;2023-02-22T09:05:11;15.20;;;7.85;;
55288;SDS011;41154;45.394;5.734;2023-02-22T09:07:39;18.45;;;8.75;;
55288;SDS011;41154;45.394;5.734;2023-02-22T09:10:06;14.65;;;6.93;;
55288;SDS011;41154;45.394;5.734;2023-02-22T09:12:32;14.45;;;7.13;;
55288;SDS011;41154;45.394;5.734;2023-02-22T09:14:57;13.50;;;7.00;;
55288;SDS011;41154;45.394;5.734;2023-02-22T09:17:23;14.73;;;7.40;;
55288;SDS011;41154;45.394;5.734;2023-02-22T09:19:49;18.58;;;8.98;;
55288;SDS011;41154;45.394;5.734;2023-02-22T09:22:15;18.38;;;8.88;;
55288;SDS011;41154;45.394;5.734;2023-02-22T09:24:40;20.40;;;9.57;;
55288;SDS011;41154;45.394;5.734;2023-02-22T09:27:07;19.08;;;9.77;;
55288;SDS011;41154;45.394;5.734;2023-02-22T09:29:35;18.90;;;9.55;;
55288;SDS011;41154;45.394;5.734;2023-02-22T09:32:00;21.77;;;10.02;;
55288;SDS011;41154;45.394;5.734;2023-02-22T09:34:29;16.85;;;9.27;;
55288;SDS011;41154;45.394;5.734;2023-02-22T09:36:55;18.27;;;9.50;;
55288;SDS011;41154;45.394;5.734;2023-02-22T09:39:22;24.67;;;9.70;;
55288;SDS011;41154;45.394;5.734;2023-02-22T09:45:04;18.75;;;9.48;;
55288;SDS011;41154;45.394;5.734;2023-02-22T09:47:47;25.55;;;9.23;;
55288;SDS011;41154;45.394;5.734;2023-02-22T09:50:23;17.70;;;8.85;;
55288;SDS011;41154;45.394;5.734;2023-02-22T09:53:03;16.77;;;8.60;;
55288;SDS011;41154;45.394;5.734;2023-02-22T09:55:37;17.88;;;7.60;;
55288;SDS011;41154;45.394;5.734;2023-02-22T09:58:09;15.77;;;7.63;;
55288;SDS011;41154;45.394;5.734;2023-02-22T10:00:45;14.40;;;8.30;;
55288;SDS011;41154;45.394;5.734;2023-02-22T10:06:22;15.10;;;7.53;;
55288;SDS011;41154;45.394;5.734;2023-02-22T10:08:53;21.60;;;8.32;;
55288;SDS011;41154;45.394;5.734;2023-02-22T10:27:36;17.73;;;8.93;;
55288;SDS011;41154;45.394;5.734;2023-02-22T10:32:42;14.27;;;7.95;;
55288;SDS011;41154;45.394;5.734;2023-02-22T10:35:22;14.02;;;8.13;;
55288;SDS011;41154;45.394;5.734;2023-02-22T10:37:55;16.45;;;8.63;;
55288;SDS011;41154;45.394;5.734;2023-02-22T10:40:31;20.05;;;8.45;;
55288;SDS011;41154;45.394;5.734;2023-02-22T10:43:02;14.48;;;7.63;;
55288;SDS011;41154;45.394;5.734;2023-02-22T10:45:30;17.23;;;9.18;;
55288;SDS011;41154;45.394;5.734;2023-02-22T10:48:09;19.88;;;8.70;;
55288;SDS011;41154;45.394;5.734;2023-02-22T10:50:39;19.45;;;7.97;;
55288;SDS011;41154;45.394;5.734;2023-02-22T10:53:08;16.52;;;7.85;;
55288;SDS011;41154;45.394;5.734;2023-02-22T10:55:35;16.42;;;8.13;;
55288;SDS011;41154;45.394;5.734;2023-02-22T10:58:21;16.42;;;7.88;;
55288;SDS011;41154;45.394;5.734;2023-02-22T11:00:47;15.90;;;8.60;;
55288;SDS011;41154;45.394;5.734;2023-02-22T11:03:19;14.73;;;7.43;;
55288;SDS011;41154;45.394;5.734;2023-02-22T11:05:49;15.25;;;7.85;;
55288;SDS011;41154;45.394;5.734;2023-02-22T11:08:17;17.52;;;8.35;;
55288;SDS011;41154;45.394;5.734;2023-02-22T11:11:02;15.23;;;7.90;;
55288;SDS011;41154;45.394;5.734;2023-02-22T11:13:45;17.50;;;8.35;;
55288;SDS011;41154;45.394;5.734;2023-02-22T11:21:36;18.83;;;8.65;;
55288;SDS011;41154;45.394;5.734;2023-02-22T11:24:07;18.10;;;8.32;;
55288;SDS011;41154;45.394;5.734;2023-02-22T11:26:48;16.65;;;8.07;;
55288;SDS011;41154;45.394;5.734;2023-02-22T11:29:28;16.60;;;8.55;;
55288;SDS011;41154;45.394;5.734;2023-02-22T11:31:57;17.48;;;8.25;;
55288;SDS011;41154;45.394;5.734;2023-02-22T11:39:46;15.77;;;8.27;;
55288;SDS011;41154;45.394;5.734;2023-02-22T11:42:22;18.65;;;7.68;;
55288;SDS011;41154;45.394;5.734;2023-02-22T11:47:48;13.25;;;6.90;;
55288;SDS011;41154;45.394;5.734;2023-02-22T11:55:49;15.75;;;7.50;;
55288;SDS011;41154;45.394;5.734;2023-02-22T12:01:21;11.95;;;6.43;;
55288;SDS011;41154;45.394;5.734;2023-02-22T12:09:29;15.30;;;7.38;;
55288;SDS011;41154;45.394;5.734;2023-02-22T12:19:50;13.45;;;6.63;;
55288;SDS011;41154;45.394;5.734;2023-02-22T12:25:02;16.20;;;6.68;;
55288;SDS011;41154;45.394;5.734;2023-02-22T12:32:57;11.48;;;7.00;;
55288;SDS011;41154;45.394;5.734;2023-02-22T12:35:27;16.92;;;7.13;;
55288;SDS011;41154;45.394;5.734;2023-02-22T12:41:08;16.25;;;7.13;;
55288;SDS011;41154;45.394;5.734;2023-02-22T12:44:04;12.50;;;6.47;;
55288;SDS011;41154;45.394;5.734;2023-02-22T12:46:41;12.57;;;6.40;;
55288;SDS011;41154;45.394;5.734;2023-02-22T13:03:00;10.75;;;5.80;;
55288;SDS011;41154;45.394;5.734;2023-02-22T13:05:49;11.52;;;6.03;;
55288;SDS011;41154;45.394;5.734;2023-02-22T13:11:16;13.20;;;6.47;;
55288;SDS011;41154;45.394;5.734;2023-02-22T13:13:57;10.85;;;6.10;;
55288;SDS011;41154;45.394;5.734;2023-02-22T13:22:47;11.05;;;5.90;;
55288;SDS011;41154;45.394;5.734;2023-02-22T13:53:17;13.98;;;6.25;;
55288;SDS011;41154;45.394;5.734;2023-02-22T13:55:54;15.00;;;7.43;;
55288;SDS011;41154;45.394;5.734;2023-02-22T13:58:22;11.77;;;6.35;;
55288;SDS011;41154;45.394;5.734;2023-02-22T14:06:04;13.45;;;6.43;;
55288;SDS011;41154;45.394;5.734;2023-02-22T14:11:00;17.10;;;6.18;;
55288;SDS011;41154;45.394;5.734;2023-02-22T14:16:28;14.30;;;7.40;;
55288;SDS011;41154;45.394;5.734;2023-02-22T14:19:12;11.10;;;6.13;;
55288;SDS011;41154;45.394;5.734;2023-02-22T14:22:26;11.07;;;5.32;;
55288;SDS011;41154;45.394;5.734;2023-02-22T14:24:40;10.68;;;6.25;;
55288;SDS011;41154;45.394;5.734;2023-02-22T14:27:09;13.45;;;7.72;;
55288;SDS011;41154;45.394;5.734;2023-02-22T14:29:36;10.45;;;6.20;;
55288;SDS011;41154;45.394;5.734;2023-02-22T14:32:03;9.85;;;5.38;;
55288;SDS011;41154;45.394;5.734;2023-02-22T14:37:29;8.68;;;5.00;;
55288;SDS011;41154;45.394;5.734;2023-02-22T14:40:16;12.10;;;6.43;;
55288;SDS011;41154;45.394;5.734;2023-02-22T14:45:30;12.60;;;6.85;;
55288;SDS011;41154;45.394;5.734;2023-02-22T14:48:44;10.00;;;6.28;;
55288;SDS011;41154;45.394;5.734;2023-02-22T14:50:51;11.40;;;5.70;;
55288;SDS011;41154;45.394;5.734;2023-02-22T14:56:50;11.52;;;6.63;;
55288;SDS011;41154;45.394;5.734;2023-02-22T15:01:33;14.32;;;6.35;;
55288;SDS011;41154;45.394;5.734;2023-02-22T15:04:22;11.05;;;6.00;;
55288;SDS011;41154;45.394;5.734;2023-02-22T15:06:46;11.63;;;6.05;;
55288;SDS011;41154;45.394;5.734;2023-02-22T15:14:21;15.70;;;7.68;;
55288;SDS011;41154;45.394;5.734;2023-02-22T15:16:59;15.98;;;8.50;;
55288;SDS011;41154;45.394;5.734;2023-02-22T15:19:28;12.55;;;6.55;;
55288;SDS011;41154;45.394;5.734;2023-02-22T15:21:56;12.73;;;6.88;;
55288;SDS011;41154;45.394;5.734;2023-02-22T15:24:35;10.07;;;5.53;;
55288;SDS011;41154;45.394;5.734;2023-02-22T15:27:03;10.60;;;5.47;;
55288;SDS011;41154;45.394;5.734;2023-02-22T15:29:35;15.82;;;7.35;;
55288;SDS011;41154;45.394;5.734;2023-02-22T15:32:17;13.95;;;7.22;;
55288;SDS011;41154;45.394;5.734;2023-02-22T15:34:52;19.05;;;7.10;;
55288;SDS011;41154;45.394;5.734;2023-02-22T15:37:21;13.43;;;6.90;;
55288;SDS011;41154;45.394;5.734;2023-02-22T15:40:04;14.18;;;7.22;;
55288;SDS011;41154;45.394;5.734;2023-02-22T15:42:31;12.88;;;6.38;;
55288;SDS011;41154;45.394;5.734;2023-02-22T15:45:06;16.58;;;7.22;;
55288;SDS011;41154;45.394;5.734;2023-02-22T15:47:32;11.25;;;6.00;;
55288;SDS011;41154;45.394;5.734;2023-02-22T15:52:46;14.38;;;6.68;;
55288;SDS011;41154;45.394;5.734;2023-02-22T15:55:17;11.18;;;6.82;;
55288;SDS011;41154;45.394;5.734;2023-02-22T15:57:47;13.50;;;6.60;;
55288;SDS011;41154;45.394;5.734;2023-02-22T16:00:18;12.23;;;6.05;;
55288;SDS011;41154;45.394;5.734;2023-02-22T16:02:47;13.90;;;7.38;;
55288;SDS011;41154;45.394;5.734;2023-02-22T16:05:15;12.63;;;6.90;;
55288;SDS011;41154;45.394;5.734;2023-02-22T16:07:43;12.45;;;6.30;;
55288;SDS011;41154;45.394;5.734;2023-02-22T16:10:19;13.40;;;6.93;;
55288;SDS011;41154;45.394;5.734;2023-02-22T16:13:28;12.43;;;6.03;;
55288;SDS011;41154;45.394;5.734;2023-02-22T16:15:53;13.32;;;6.63;;
55288;SDS011;41154;45.394;5.734;2023-02-22T16:18:31;11.50;;;6.70;;
55288;SDS011;41154;45.394;5.734;2023-02-22T16:21:00;15.50;;;7.38;;
55288;SDS011;41154;45.394;5.734;2023-02-22T16:23:52;16.52;;;8.73;;
55288;SDS011;41154;45.394;5.734;2023-02-22T16:26:30;16.50;;;8.63;;
55288;SDS011;41154;45.394;5.734;2023-02-22T16:31:32;18.58;;;7.97;;
55288;SDS011;41154;45.394;5.734;2023-02-22T16:34:05;16.13;;;8.35;;
55288;SDS011;41154;45.394;5.734;2023-02-22T16:36:36;18.40;;;8.68;;
55288;SDS011;41154;45.394;5.734;2023-02-22T16:39:30;15.32;;;7.78;;
55288;SDS011;41154;45.394;5.734;2023-02-22T16:42:00;13.88;;;7.05;;
55288;SDS011;41154;45.394;5.734;2023-02-22T16:44:28;19.73;;;8.52;;
55288;SDS011;41154;45.394;5.734;2023-02-22T16:46:56;20.55;;;8.98;;
55288;SDS011;41154;45.394;5.734;2023-02-22T16:49:25;21.58;;;8.48;;
55288;SDS011;41154;45.394;5.734;2023-02-22T16:51:55;21.65;;;8.80;;
55288;SDS011;41154;45.394;5.734;2023-02-22T16:54:27;18.85;;;9.27;;
55288;SDS011;41154;45.394;5.734;2023-02-22T16:56:59;22.03;;;11.27;;
55288;SDS011;41154;45.394;5.734;2023-02-22T16:59:29;19.77;;;9.85;;
55288;SDS011;41154;45.394;5.734;2023-02-22T17:01:57;19.48;;;9.45;;
55288;SDS011;41154;45.394;5.734;2023-02-22T17:04:24;18.73;;;10.00;;
55288;SDS011;41154;45.394;5.734;2023-02-22T17:06:51;20.27;;;9.57;;
55288;SDS011;41154;45.394;5.734;2023-02-22T17:09:17;20.15;;;9.75;;
55288;SDS011;41154;45.394;5.734;2023-02-22T17:11:49;32.75;;;12.27;;
55288;SDS011;41154;45.394;5.734;2023-02-22T17:14:19;18.77;;;9.27;;
55288;SDS011;41154;45.394;5.734;2023-02-22T17:16:50;16.08;;;8.80;;
55288;SDS011;41154;45.394;5.734;2023-02-22T17:19:20;17.65;;;9.15;;
55288;SDS011;41154;45.394;5.734;2023-02-22T17:21:48;23.73;;;10.98;;
55288;SDS011;41154;45.394;5.734;2023-02-22T17:24:18;21.77;;;10.35;;
55288;SDS011;41154;45.394;5.734;2023-02-22T17:26:49;15.85;;;8.02;;
55288;SDS011;41154;45.394;5.734;2023-02-22T17:29:18;17.20;;;8.57;;
55288;SDS011;41154;45.394;5.734;2023-02-22T17:31:44;17.67;;;9.05;;
55288;SDS011;41154;45.394;5.734;2023-02-22T17:34:12;18.60;;;9.38;;
55288;SDS011;41154;45.394;5.734;2023-02-22T17:36:38;19.33;;;9.98;;
55288;SDS011;41154;45.394;5.734;2023-02-22T17:39:05;20.48;;;8.95;;
55288;SDS011;41154;45.394;5.734;2023-02-22T17:41:34;14.35;;;7.22;;
55288;SDS011;41154;45.394;5.734;2023-02-22T17:44:01;13.07;;;6.70;;
55288;SDS011;41154;45.394;5.734;2023-02-22T17:46:29;12.93;;;7.20;;
55288;SDS011;41154;45.394;5.734;2023-02-22T17:48:54;12.25;;;7.10;;
55288;SDS011;41154;45.394;5.734;2023-02-22T17:51:21;13.85;;;7.05;;
55288;SDS011;41154;45.394;5.734;2023-02-22T17:53:48;16.30;;;6.93;;
55288;SDS011;41154;45.394;5.734;2023-02-22T17:56:15;16.17;;;7.18;;
55288;SDS011;41154;45.394;5.734;2023-02-22T17:58:43;14.10;;;7.88;;